Weather History for KEGV - June, 2014

Change the Weather History Date:

Tuesday, June 3, 2014

  Actual Average Record
Temperature  
Mean Temperature 59 °F -  
Max Temperature 70 °F 71 °F 83 °F (1991)
Min Temperature 48 °F 44 °F 30 °F (2004)
Degree Days  
Heating Degree Days 6    
Growing Degree Days 9 (Base 50)    
Moisture  
Dew Point 48 °F    
Average Humidity 72    
Maximum Humidity 100    
Minimum Humidity 40    
Precipitation  
Precipitation 0.16 in - - ()
Sea Level Pressure  
Sea Level Pressure 29.80 in    
Wind  
Wind Speed 13 mph (WNW)    
Max Wind Speed 20 mph    
Max Gust Speed 36 mph    
Visibility 9 miles    
Events Rain    
Averages and records for this station are not official NWS values.
T = Trace of Precipitation, MM = Missing Value Source: NWS Daily Summary

Daily Weather History Graph

Daily Weather History Graph

Search for Another Location

Airport or City:

Trip Planner

Search our weather history database for the weather conditions in past years. The results will help you decide how hot, cold, wet, or windy it might be!

Date:

Astronomy

Jun. 03, 2014 Rise Set
Actual Time 5:09 AM CDT 8:41 PM CDT
Civil Twilight 4:31 AM CDT 9:19 PM CDT
Nautical Twilight 3:41 AM CDT 10:09 PM CDT
Astronomical Twilight 2:36 AM CDT 11:15 PM CDT
Moon 10:43 AM CDT (6/3) No Moon Set
Length of Visible Light 16h 47m
Length of Day
15h 32m
Waxing Crescent, 30% of the Moon is Illuminated
Jun 3
Waxing Crescent
Jun 5
First Quarter
Jun 12
Full
Jun 19
Last Quarter
Jun 27
New

Hourly Weather History & Observations

Time (CDT) Temp. Dew Point Humidity Pressure Visibility Wind Dir Wind Speed Gust Speed Precip Events Conditions
12:10 AM 63.0 °F 54.0 °F 72% 29.62 in 10.0 mi WSW 17.3 mph 21.9 mph N/A   Mostly Cloudy
12:30 AM 62.6 °F 51.4 °F 67% 29.62 in 10.0 mi WSW 17.3 mph 32.2 mph N/A   Mostly Cloudy
12:50 AM 60.3 °F 50.9 °F 71% 29.63 in 10.0 mi West 18.4 mph 29.9 mph N/A Rain Rain
1:10 AM 59.0 °F 50.9 °F 74% 29.62 in 10.0 mi WSW 15.0 mph 23.0 mph N/A   Overcast
1:30 AM 58.8 °F 50.9 °F 75% 29.63 in 10.0 mi West 13.8 mph 24.2 mph N/A   Overcast
1:50 AM 58.5 °F 50.2 °F 74% 29.63 in 10.0 mi West 17.3 mph 23.0 mph N/A   Overcast
2:10 AM 58.5 °F 50.4 °F 74% 29.63 in 10.0 mi West 13.8 mph 23.0 mph N/A   Overcast
2:30 AM 54.1 °F 50.9 °F 89% 29.65 in 2.5 mi West 19.6 mph 35.7 mph 0.04 in Rain Light Rain
2:50 AM 52.9 °F 52.0 °F 97% 29.65 in 7.0 mi WNW 13.8 mph 21.9 mph 0.04 in   Light Drizzle
3:10 AM 52.9 °F 51.4 °F 95% 29.65 in 10.0 mi WNW 13.8 mph 23.0 mph N/A   Overcast
3:30 AM 52.3 °F 51.8 °F 98% 29.67 in 3.0 mi WNW 11.5 mph 18.4 mph N/A Rain Heavy Rain
3:50 AM 51.6 °F 50.2 °F 95% 29.68 in 3.0 mi WNW 15.0 mph 29.9 mph 0.04 in Rain Rain
4:10 AM 51.3 °F 49.8 °F 95% 29.68 in 7.0 mi WNW 18.4 mph 24.2 mph N/A   Overcast
4:30 AM 50.7 °F 49.1 °F 94% 29.69 in 7.0 mi WNW 13.8 mph 21.9 mph N/A Rain Heavy Rain
4:50 AM 50.2 °F 49.1 °F 96% 29.70 in 5.0 mi WNW 13.8 mph 21.9 mph 0.01 in Rain Rain
5:10 AM 50.0 °F 49.3 °F 97% 29.71 in 2.0 mi WNW 11.5 mph 17.3 mph 0.03 in Rain Heavy Rain
5:30 AM 50.0 °F 48.7 °F 95% 29.72 in 7.0 mi WNW 12.7 mph 25.3 mph 0.05 in   Overcast
5:50 AM 49.6 °F 48.2 °F 95% 29.74 in 2.5 mi WNW 16.1 mph 28.8 mph 0.05 in Rain Heavy Rain
6:10 AM 49.5 °F 48.2 °F 95% 29.75 in 5.0 mi WNW 13.8 mph 21.9 mph 0.02 in Rain Light Rain
6:30 AM 50.0 °F 47.3 °F 90% 29.76 in 10.0 mi WNW 15.0 mph 20.7 mph 0.02 in   Overcast
6:50 AM 50.0 °F 48.4 °F 94% 29.77 in 5.0 mi WNW 10.4 mph 19.6 mph 0.02 in   Overcast
7:10 AM 50.5 °F 48.9 °F 94% 29.78 in 10.0 mi WNW 15.0 mph 20.7 mph N/A   Overcast
7:30 AM 51.4 °F 48.2 °F 89% 29.79 in 10.0 mi WNW 16.1 mph 23.0 mph N/A   Overcast
7:50 AM 51.8 °F 48.6 °F 89% 29.80 in 10.0 mi WNW 16.1 mph 20.7 mph N/A   Overcast
8:10 AM 53.1 °F 47.5 °F 81% 29.80 in 10.0 mi WNW 13.8 mph 21.9 mph N/A   Overcast
8:30 AM 53.6 °F 46.9 °F 78% 29.81 in 10.0 mi WNW 16.1 mph 23.0 mph N/A   Overcast
8:50 AM 55.6 °F 46.6 °F 72% 29.81 in 10.0 mi WNW 12.7 mph 20.7 mph N/A   Scattered Clouds
9:10 AM 56.8 °F 46.8 °F 69% 29.82 in 10.0 mi WNW 12.7 mph 24.2 mph N/A   Mostly Cloudy
9:30 AM 54.9 °F 46.9 °F 75% 29.82 in 10.0 mi West 10.4 mph 19.6 mph N/A   Overcast
9:50 AM 54.5 °F 47.3 °F 77% 29.83 in 10.0 mi West 10.4 mph - N/A   Overcast
10:10 AM 54.9 °F 47.8 °F 77% 29.84 in 10.0 mi West 8.1 mph - N/A   Overcast
10:30 AM 55.4 °F 48.4 °F 77% 29.84 in 10.0 mi WNW 6.9 mph - N/A   Overcast
10:50 AM 55.9 °F 48.4 °F 76% 29.85 in 10.0 mi West 9.2 mph 16.1 mph N/A   Overcast
11:10 AM 59.0 °F 50.0 °F 72% 29.85 in 10.0 mi West 9.2 mph - N/A   Overcast
11:30 AM 60.3 °F 48.9 °F 66% 29.85 in 10.0 mi WNW 15.0 mph 20.7 mph N/A   Overcast
11:50 AM 60.3 °F 49.1 °F 67% 29.86 in 10.0 mi West 9.2 mph - N/A   Overcast
12:10 PM 63.1 °F 50.5 °F 63% 29.86 in 10.0 mi West 10.4 mph 16.1 mph N/A   Mostly Cloudy
12:30 PM 62.8 °F 50.0 °F 63% 29.85 in 10.0 mi West 12.7 mph 19.6 mph N/A   Overcast
12:50 PM 63.9 °F 49.1 °F 59% 29.85 in 10.0 mi West 15.0 mph 18.4 mph N/A   Mostly Cloudy
1:10 PM 65.8 °F 50.4 °F 57% 29.85 in 10.0 mi West 13.8 mph 19.6 mph N/A   Mostly Cloudy
1:30 PM 66.2 °F 49.3 °F 54% 29.85 in 10.0 mi West 15.0 mph 20.7 mph N/A   Mostly Cloudy
1:50 PM 68.4 °F 49.1 °F 50% 29.84 in 10.0 mi West 16.1 mph 19.6 mph N/A   Mostly Cloudy
2:10 PM 67.1 °F 47.1 °F 49% 29.84 in 10.0 mi NW 15.0 mph 25.3 mph N/A   Mostly Cloudy
2:30 PM 65.3 °F 47.1 °F 52% 29.85 in 10.0 mi West 10.4 mph 23.0 mph N/A   Overcast
2:50 PM 67.6 °F 47.3 °F 48% 29.84 in 10.0 mi WNW 13.8 mph 19.6 mph N/A   Mostly Cloudy
3:30 PM 67.3 °F 46.4 °F 47% 29.86 in 10.0 mi WNW 16.1 mph 20.7 mph N/A   Mostly Cloudy
3:50 PM 66.4 °F 46.8 °F 49% 29.86 in 10.0 mi NW 6.9 mph - N/A   Overcast
4:10 PM 66.2 °F 46.6 °F 49% 29.86 in 10.0 mi NW 8.1 mph 16.1 mph N/A   Overcast
4:30 PM 68.4 °F 46.4 °F 45% 29.86 in 10.0 mi NW 10.4 mph - N/A   Overcast
4:50 PM 67.6 °F 45.0 °F 44% 29.87 in 10.0 mi NW 11.5 mph 23.0 mph N/A   Mostly Cloudy
5:10 PM 69.1 °F 46.8 °F 45% 29.86 in 10.0 mi NW 10.4 mph - N/A   Mostly Cloudy
5:30 PM 69.4 °F 44.8 °F 41% 29.87 in 10.0 mi NNW 16.1 mph 21.9 mph N/A   Scattered Clouds
5:50 PM 68.4 °F 44.8 °F 43% 29.87 in 10.0 mi NW 10.4 mph 18.4 mph N/A   Mostly Cloudy
6:10 PM 69.1 °F 44.1 °F 40% 29.86 in 10.0 mi WNW 11.5 mph - N/A   Scattered Clouds
6:30 PM 68.9 °F 44.6 °F 42% 29.87 in 10.0 mi NW 9.2 mph - N/A   Scattered Clouds
6:50 PM 68.9 °F 45.1 °F 42% 29.88 in 10.0 mi WNW 10.4 mph - N/A   Scattered Clouds
7:10 PM 68.2 °F 45.7 °F 44% 29.88 in 10.0 mi NW 6.9 mph - N/A   Scattered Clouds
7:30 PM 66.9 °F 45.5 °F 46% 29.87 in 10.0 mi NNW 8.1 mph - N/A   Scattered Clouds
7:50 PM 65.5 °F 45.5 °F 48% 29.86 in 10.0 mi North 5.8 mph - N/A   Clear
8:10 PM 63.7 °F 45.7 °F 52% 29.85 in 10.0 mi North 4.6 mph - N/A   Clear
8:30 PM 62.6 °F 45.5 °F 54% 29.87 in 10.0 mi Calm Calm - N/A   Clear
8:50 PM 58.6 °F 47.1 °F 66% 29.88 in 10.0 mi Calm Calm - N/A   Scattered Clouds
9:10 PM 57.0 °F 48.4 °F 73% 29.88 in 10.0 mi Calm Calm - N/A   Clear
9:30 PM 53.2 °F 48.4 °F 84% 29.89 in 10.0 mi Calm Calm - N/A   Clear
9:50 PM 53.4 °F 50.5 °F 90% 29.89 in 10.0 mi Calm Calm - N/A   Clear
10:10 PM 52.0 °F 50.5 °F 95% 29.90 in 10.0 mi Calm Calm - N/A   Clear
10:30 PM 51.8 °F 50.9 °F 97% 29.89 in 10.0 mi Calm Calm - N/A   Clear
10:50 PM 49.6 °F 49.1 °F 98% 29.91 in 10.0 mi Calm Calm - N/A   Clear
11:10 PM 49.6 °F 49.6 °F 100% 29.91 in 10.0 mi Calm Calm - N/A   Clear
11:30 PM 49.5 °F 49.5 °F 100% 29.91 in 10.0 mi Calm Calm - N/A   Clear
11:50 PM 48.6 °F 48.6 °F 100% 29.91 in 10.0 mi Calm Calm - N/A   Clear